createdAt,value
2018-06-16T00:00:02.888Z,24.77
2018-06-16T00:03:13.464Z,22.85
2018-06-16T00:06:23.871Z,27.25
2018-06-16T00:09:34.575Z,27.30
2018-06-16T00:12:46.256Z,31.48
2018-06-16T00:15:56.940Z,28.83
2018-06-16T00:19:07.524Z,27.95
2018-06-16T00:22:17.865Z,24.50
2018-06-16T00:25:28.556Z,26.07
2018-06-16T00:28:39.119Z,28.17
2018-06-16T00:31:50.844Z,29.85
2018-06-16T00:35:01.224Z,31.00
2018-06-16T00:38:11.995Z,28.42
2018-06-16T00:41:22.697Z,32.73
2018-06-16T00:44:33.250Z,35.13
2018-06-16T00:47:44.316Z,32.33
2018-06-16T00:50:55.097Z,27.20
2018-06-16T00:54:05.651Z,29.82
2018-06-16T00:57:33.266Z,31.30
2018-06-16T01:00:44.044Z,29.92
2018-06-16T01:03:54.804Z,32.28
2018-06-16T01:07:06.050Z,28.73
2018-06-16T01:10:16.832Z,30.00
2018-06-16T01:13:27.545Z,34.30
2018-06-16T01:16:38.097Z,32.85
2018-06-16T01:19:48.439Z,30.30
2018-06-16T01:22:59.115Z,33.83
2018-06-16T01:26:09.501Z,32.88
2018-06-16T01:29:20.180Z,30.80
2018-06-16T01:32:31.287Z,34.80
2018-06-16T01:35:42.520Z,33.38
2018-06-16T01:38:53.304Z,33.65
2018-06-16T01:42:04.169Z,31.27
2018-06-16T01:45:14.855Z,34.63
2018-06-16T01:48:25.367Z,34.75
2018-06-16T01:51:36.132Z,41.37
2018-06-16T01:54:46.991Z,33.25
2018-06-16T01:57:57.780Z,35.13
2018-06-16T02:01:08.657Z,42.33
2018-06-16T02:04:20.156Z,35.28
2018-06-16T02:07:30.696Z,40.65
2018-06-16T02:10:41.264Z,39.73
2018-06-16T02:13:51.847Z,45.85
2018-06-16T02:17:02.615Z,37.23
2018-06-16T02:20:13.384Z,44.88
2018-06-16T02:23:23.705Z,45.25
2018-06-16T02:26:34.636Z,39.48
2018-06-16T02:29:45.208Z,40.80
2018-06-16T02:32:56.073Z,41.13
2018-06-16T02:36:07.014Z,47.83
2018-06-16T02:39:17.889Z,53.48
2018-06-16T02:42:28.340Z,44.77
2018-06-16T02:45:39.418Z,49.37
2018-06-16T02:48:50.252Z,46.40
2018-06-16T02:52:00.992Z,48.10
2018-06-16T02:55:11.455Z,44.50
2018-06-16T02:58:22.089Z,32.97
2018-06-16T03:01:32.768Z,45.03
2018-06-16T03:04:43.644Z,43.40
2018-06-16T03:07:53.908Z,42.50
2018-06-16T03:11:04.745Z,59.63
2018-06-16T03:14:15.448Z,39.35
2018-06-16T03:17:26.201Z,43.43
2018-06-16T03:20:36.591Z,47.13
2018-06-16T03:23:46.889Z,49.90
2018-06-16T03:26:57.832Z,46.83
2018-06-16T03:30:08.324Z,45.47
2018-06-16T03:33:18.927Z,44.42
2018-06-16T03:36:29.197Z,44.30
2018-06-16T03:39:39.865Z,52.37
2018-06-16T03:42:50.649Z,47.70
2018-06-16T03:46:02.568Z,52.00
2018-06-16T03:49:12.795Z,48.67
2018-06-16T03:52:23.030Z,49.70
2018-06-16T03:55:34.381Z,51.83
2018-06-16T03:58:45.199Z,52.38
2018-06-16T04:01:56.019Z,45.60
2018-06-16T04:05:06.307Z,42.88
2018-06-16T04:08:16.983Z,40.12
2018-06-16T04:11:27.543Z,43.13
2018-06-16T04:14:38.164Z,38.83
2018-06-16T04:17:48.916Z,46.37
2018-06-16T04:20:59.615Z,43.08
2018-06-16T04:24:10.003Z,40.25
2018-06-16T04:27:22.283Z,39.40
2018-06-16T04:30:32.681Z,37.80
2018-06-16T04:33:43.625Z,41.70
2018-06-16T04:36:54.207Z,41.05
2018-06-16T04:40:04.961Z,34.60
2018-06-16T04:43:15.247Z,34.60
2018-06-16T04:46:26.145Z,35.48
2018-06-16T04:49:36.980Z,38.00
2018-06-16T04:52:47.432Z,38.30
2018-06-16T04:56:00.900Z,32.40
2018-06-16T04:59:11.771Z,31.97
2018-06-16T05:02:22.361Z,36.03
2018-06-16T05:05:35.213Z,33.10
2018-06-16T05:08:45.800Z,30.72
2018-06-16T05:11:56.640Z,29.90
2018-06-16T05:15:07.405Z,29.37
2018-06-16T05:18:18.521Z,29.70
2018-06-16T05:21:28.851Z,26.12
2018-06-16T05:24:39.467Z,29.07
2018-06-16T05:27:49.857Z,24.95
2018-06-16T05:31:05.708Z,25.37
2018-06-16T05:34:16.812Z,25.40
2018-06-16T05:37:27.592Z,18.98
2018-06-16T05:40:38.423Z,20.15
2018-06-16T05:43:48.751Z,16.67
2018-06-16T05:46:59.148Z,15.68
2018-06-16T05:50:09.516Z,14.20
2018-06-16T05:53:20.044Z,13.88
2018-06-16T05:56:30.826Z,13.45
2018-06-16T05:59:41.339Z,13.00
2018-06-16T06:02:51.991Z,19.02
2018-06-16T06:06:03.627Z,17.25
2018-06-16T06:09:14.548Z,15.53
2018-06-16T06:12:25.258Z,14.80
2018-06-16T06:15:36.032Z,16.52
2018-06-16T06:18:46.823Z,15.38
2018-06-16T06:21:57.700Z,14.03
2018-06-16T06:25:08.200Z,17.97
2018-06-16T06:28:18.602Z,16.42
2018-06-16T06:31:29.036Z,16.20
2018-06-16T06:34:39.720Z,17.75
2018-06-16T06:37:50.232Z,15.65
2018-06-16T06:41:00.724Z,15.03
2018-06-16T06:44:11.895Z,15.25
2018-06-16T06:47:22.217Z,16.02
2018-06-16T06:50:32.945Z,13.60
2018-06-16T06:53:44.820Z,16.48
2018-06-16T06:56:55.984Z,13.22
2018-06-16T07:00:06.282Z,14.80
2018-06-16T07:03:16.976Z,12.93
2018-06-16T07:06:27.488Z,11.15
2018-06-16T07:09:37.863Z,10.75
2018-06-16T07:12:48.471Z,11.18
2018-06-16T07:15:59.073Z,12.35
2018-06-16T07:19:09.643Z,10.72
2018-06-16T07:22:20.095Z,16.00
2018-06-16T07:25:30.906Z,7.67
2018-06-16T07:28:41.820Z,8.50
2018-06-16T07:31:52.402Z,11.73
2018-06-16T07:35:02.874Z,10.60
2018-06-16T07:38:13.276Z,18.30
2018-06-16T07:41:23.966Z,9.43
2018-06-16T07:44:34.607Z,11.28
2018-06-16T07:47:45.438Z,10.08
2018-06-16T07:50:57.060Z,14.68
2018-06-16T07:54:08.247Z,9.55
2018-06-16T07:57:19.096Z,10.98
2018-06-16T08:00:29.785Z,9.88
2018-06-16T08:03:40.254Z,13.50
2018-06-16T08:06:50.927Z,10.90
2018-06-16T08:10:01.813Z,14.95
2018-06-16T08:13:12.805Z,13.28
2018-06-16T08:16:23.524Z,9.35
2018-06-16T08:19:33.935Z,14.07
2018-06-16T08:22:44.852Z,14.35
2018-06-16T08:25:55.751Z,10.58
2018-06-16T08:29:06.821Z,12.43
2018-06-16T08:32:17.783Z,8.75
2018-06-16T08:35:28.445Z,10.13
2018-06-16T08:38:39.241Z,14.38
2018-06-16T08:41:49.908Z,7.92
2018-06-16T08:45:00.216Z,12.10
2018-06-16T08:48:12.467Z,10.48
2018-06-16T08:51:23.399Z,13.28
2018-06-16T08:54:34.250Z,15.08
2018-06-16T08:57:45.208Z,12.35
2018-06-16T09:00:56.139Z,12.78
2018-06-16T09:04:06.702Z,13.48
2018-06-16T09:07:17.478Z,10.63
2018-06-16T09:10:27.879Z,11.05
2018-06-16T09:13:38.494Z,8.13
2018-06-16T09:16:49.024Z,9.18
2018-06-16T09:19:59.811Z,8.98
2018-06-16T09:23:10.094Z,8.10
2018-06-16T09:26:21.004Z,11.65
2018-06-16T09:29:31.579Z,11.78
2018-06-16T09:32:42.445Z,12.65
2018-06-16T09:35:52.679Z,13.43
2018-06-16T09:39:03.608Z,12.53
2018-06-16T09:42:14.562Z,13.78
2018-06-16T09:45:25.016Z,14.33
2018-06-16T09:48:35.623Z,13.28
2018-06-16T09:51:46.580Z,13.98
2018-06-16T09:54:56.936Z,10.08
2018-06-16T09:58:07.368Z,12.45
2018-06-16T10:01:18.021Z,11.85
2018-06-16T10:04:28.683Z,11.50
2018-06-16T10:07:38.960Z,14.63
2018-06-16T10:10:49.726Z,10.43
2018-06-16T10:14:00.532Z,17.05
2018-06-16T10:17:11.357Z,11.68
2018-06-16T10:20:21.784Z,11.20
2018-06-16T10:23:32.083Z,12.07
2018-06-16T10:26:42.631Z,9.70
2018-06-16T10:29:52.851Z,12.73
2018-06-16T10:33:03.173Z,10.03
2018-06-16T10:36:14.201Z,9.88
2018-06-16T10:39:24.788Z,12.05
2018-06-16T10:42:35.170Z,8.45
2018-06-16T10:45:46.060Z,10.18
2018-06-16T10:48:56.684Z,11.90
2018-06-16T10:52:07.180Z,13.48
2018-06-16T10:55:17.631Z,9.75
2018-06-16T10:58:28.396Z,8.50
2018-06-16T11:01:39.164Z,11.63
2018-06-16T11:04:50.320Z,8.23
2018-06-16T11:08:00.856Z,12.85
2018-06-16T11:11:16.494Z,7.33
2018-06-16T11:14:27.058Z,7.40
2018-06-16T11:17:37.844Z,13.70
2018-06-16T11:20:48.709Z,11.30
2018-06-16T11:23:59.913Z,8.45
2018-06-16T11:27:10.723Z,7.78
2018-06-16T11:30:21.319Z,12.35
2018-06-16T11:33:32.023Z,10.25
2018-06-16T11:36:43.134Z,7.35
2018-06-16T11:39:53.813Z,8.78
2018-06-16T11:43:04.421Z,6.45
2018-06-16T11:46:15.283Z,6.97
2018-06-16T11:49:26.631Z,10.50
2018-06-16T11:52:37.485Z,7.47
2018-06-16T11:55:48.370Z,7.10
2018-06-16T11:58:59.531Z,6.47
2018-06-16T12:02:10.652Z,7.47
2018-06-16T12:05:21.349Z,8.15
2018-06-16T12:08:31.826Z,8.10
2018-06-16T12:11:42.362Z,7.45
2018-06-16T12:14:53.215Z,9.18
2018-06-16T12:18:04.120Z,10.55
2018-06-16T12:21:15.030Z,8.48
2018-06-16T12:24:26.267Z,10.13
2018-06-16T12:27:37.091Z,6.78
2018-06-16T12:30:47.547Z,8.58
2018-06-16T12:33:58.772Z,13.20
2018-06-16T12:37:14.001Z,8.45
2018-06-16T12:40:24.687Z,7.17
2018-06-16T12:43:35.409Z,6.15
2018-06-16T12:46:47.182Z,7.70
2018-06-16T12:49:58.147Z,9.70
2018-06-16T12:53:08.960Z,6.37
2018-06-16T12:56:19.973Z,7.25
2018-06-16T12:59:30.904Z,5.62
2018-06-16T13:02:41.606Z,6.85
2018-06-16T13:05:52.191Z,5.00
2018-06-16T13:09:02.860Z,7.17
2018-06-16T13:12:14.060Z,6.95
2018-06-16T13:15:24.480Z,6.17
2018-06-16T13:18:35.401Z,6.60
2018-06-16T13:21:46.820Z,8.23
2018-06-16T13:24:57.524Z,6.35
2018-06-16T13:28:08.589Z,11.90
2018-06-16T13:31:19.513Z,6.90
2018-06-16T13:34:29.970Z,8.63
2018-06-16T13:37:40.811Z,9.53
2018-06-16T13:40:51.584Z,7.50
2018-06-16T13:44:02.445Z,7.50
2018-06-16T13:47:13.248Z,9.65
2018-06-16T13:50:24.030Z,6.72
2018-06-16T13:53:34.672Z,13.78
2018-06-16T13:56:45.278Z,6.67
2018-06-16T13:59:55.736Z,5.42
2018-06-16T14:03:06.633Z,7.20
2018-06-16T14:06:17.272Z,8.13
2018-06-16T14:09:27.680Z,6.95
2018-06-16T14:12:38.730Z,6.00
2018-06-16T14:15:49.590Z,6.95
2018-06-16T14:19:00.502Z,4.67
2018-06-16T14:22:11.317Z,4.70
2018-06-16T14:25:22.160Z,6.00
2018-06-16T14:28:32.996Z,5.47
2018-06-16T14:31:43.824Z,6.67
2018-06-16T14:34:55.808Z,4.25
2018-06-16T14:38:06.961Z,9.80
2018-06-16T14:41:17.634Z,4.62
2018-06-16T14:44:28.917Z,6.70
2018-06-16T14:47:39.576Z,7.28
2018-06-16T14:50:50.540Z,7.45
2018-06-16T14:54:01.495Z,4.90
2018-06-16T14:57:13.544Z,6.50
2018-06-16T15:00:24.810Z,10.18
2018-06-16T15:03:37.927Z,5.15
2018-06-16T15:06:48.825Z,5.22
2018-06-16T15:09:59.797Z,7.92
2018-06-16T15:13:10.419Z,4.30
2018-06-16T15:16:21.162Z,5.00
2018-06-16T15:19:31.544Z,7.50
2018-06-16T15:22:42.478Z,5.17
2018-06-16T15:25:53.286Z,5.97
2018-06-16T15:29:03.952Z,5.35
2018-06-16T15:32:14.820Z,6.12
2018-06-16T15:35:25.648Z,14.35
2018-06-16T15:38:36.356Z,4.40
2018-06-16T15:41:46.908Z,4.72
2018-06-16T15:44:59.405Z,5.92
2018-06-16T15:48:10.225Z,5.97
2018-06-16T15:51:20.798Z,4.90
2018-06-16T15:54:32.505Z,4.85
2018-06-16T15:57:43.245Z,3.47
2018-06-16T16:00:55.390Z,4.47
2018-06-16T16:04:06.381Z,7.42
2018-06-16T16:07:17.475Z,6.35
2018-06-16T16:10:28.268Z,5.15
2018-06-16T16:13:38.604Z,8.03
2018-06-16T16:16:48.969Z,7.37
2018-06-16T16:19:59.557Z,5.10
2018-06-16T16:23:10.326Z,3.98
2018-06-16T16:26:21.160Z,6.45
2018-06-16T16:29:32.026Z,7.87
2018-06-16T16:32:43.030Z,7.92
2018-06-16T16:35:53.367Z,6.25
2018-06-16T16:39:06.294Z,5.08
2018-06-16T16:42:16.696Z,4.42
2018-06-16T16:45:27.585Z,5.00
2018-06-16T16:48:38.080Z,3.58
2018-06-16T16:51:49.536Z,4.45
2018-06-16T16:55:00.462Z,3.95
2018-06-16T16:58:11.245Z,7.75
2018-06-16T17:01:21.827Z,5.08
2018-06-16T17:04:32.877Z,7.25
2018-06-16T17:07:43.259Z,4.40
2018-06-16T17:10:54.267Z,4.97
2018-06-16T17:14:05.480Z,5.50
2018-06-16T17:17:15.905Z,7.87
2018-06-16T17:20:26.968Z,8.15
2018-06-16T17:23:39.105Z,4.65
2018-06-16T17:26:50.141Z,14.13
2018-06-16T17:30:00.996Z,3.83
2018-06-16T17:33:12.587Z,7.55
2018-06-16T17:36:23.287Z,7.37
2018-06-16T17:39:33.840Z,7.40
2018-06-16T17:42:44.496Z,4.22
2018-06-16T17:45:54.928Z,6.67
2018-06-16T17:49:05.672Z,7.25
2018-06-16T17:52:16.410Z,8.13
2018-06-16T17:55:27.049Z,5.95
2018-06-16T17:58:37.687Z,7.50
2018-06-16T18:01:48.526Z,7.25
2018-06-16T18:04:59.183Z,7.45
2018-06-16T18:08:09.896Z,7.60
2018-06-16T18:11:20.509Z,6.47
2018-06-16T18:14:31.253Z,7.50
2018-06-16T18:17:41.684Z,10.90
2018-06-16T18:20:52.340Z,10.95
2018-06-16T18:24:03.186Z,13.20
2018-06-16T18:27:13.447Z,12.63
2018-06-16T18:30:23.971Z,10.80
2018-06-16T18:33:35.071Z,20.30
2018-06-16T18:36:45.545Z,14.78
2018-06-16T18:39:56.193Z,10.80
2018-06-16T18:43:06.823Z,16.85
2018-06-16T18:46:17.171Z,16.62
2018-06-16T18:49:27.568Z,15.30
2018-06-16T18:52:38.809Z,19.02
2018-06-16T18:55:49.109Z,16.23
2018-06-16T18:58:59.437Z,17.48
2018-06-16T19:02:10.296Z,13.50
2018-06-16T19:05:20.764Z,17.77
2018-06-16T19:08:31.794Z,14.38
2018-06-16T19:11:42.754Z,19.02
2018-06-16T19:14:53.756Z,19.95
2018-06-16T19:18:04.445Z,17.40
2018-06-16T19:21:15.337Z,21.82
2018-06-16T19:24:26.212Z,21.40
2018-06-16T19:27:36.850Z,11.93
2018-06-16T19:30:47.745Z,13.45
2018-06-16T19:33:58.508Z,13.85
2018-06-16T19:37:09.290Z,14.53
2018-06-16T19:40:20.105Z,13.35
2018-06-16T19:43:31.716Z,13.30
2018-06-16T19:46:42.327Z,10.35
2018-06-16T19:49:53.790Z,13.35
2018-06-16T19:53:04.498Z,15.13
2018-06-16T19:56:15.079Z,16.30
2018-06-16T19:59:25.515Z,15.18
2018-06-16T20:02:36.266Z,14.30
2018-06-16T20:05:46.545Z,14.50
2018-06-16T20:08:57.210Z,12.73
2018-06-16T20:12:07.598Z,12.82
2018-06-16T20:15:18.267Z,14.80
2018-06-16T20:18:28.950Z,11.53
2018-06-16T20:21:39.769Z,15.93
2018-06-16T20:24:50.432Z,11.35
2018-06-16T20:28:01.180Z,9.28
2018-06-16T20:31:12.138Z,16.02
2018-06-16T20:34:22.554Z,12.75
2018-06-16T20:37:33.342Z,10.40
2018-06-16T20:40:44.420Z,17.52
2018-06-16T20:43:54.832Z,16.80
2018-06-16T20:47:05.880Z,10.23
2018-06-16T20:50:16.624Z,13.15
2018-06-16T20:53:27.356Z,15.28
2018-06-16T20:56:38.019Z,14.18
2018-06-16T20:59:49.031Z,15.85
2018-06-16T21:02:59.802Z,14.17
2018-06-16T21:06:10.688Z,10.80
2018-06-16T21:09:21.010Z,19.45
2018-06-16T21:12:32.558Z,18.55
2018-06-16T21:15:43.336Z,17.32
2018-06-16T21:18:54.172Z,13.35
2018-06-16T21:22:04.669Z,17.85
2018-06-16T21:25:15.112Z,16.10
2018-06-16T21:28:29.756Z,21.70
2018-06-16T21:31:40.158Z,14.58
2018-06-16T21:34:50.633Z,16.75
2018-06-16T21:38:01.077Z,15.10
2018-06-16T21:41:11.988Z,21.87
2018-06-16T21:44:22.686Z,22.73
2018-06-16T21:47:33.715Z,18.02
2018-06-16T21:50:44.511Z,20.27
2018-06-16T21:53:56.463Z,17.77
2018-06-16T21:57:07.439Z,19.47
2018-06-16T22:00:18.133Z,19.70
2018-06-16T22:03:28.990Z,21.17
2018-06-16T22:06:39.400Z,20.25
2018-06-16T22:09:50.045Z,17.82
2018-06-16T22:13:00.899Z,16.55
2018-06-16T22:16:11.483Z,25.52
2018-06-16T22:19:21.921Z,22.30
2018-06-16T22:22:32.326Z,29.93
2018-06-16T22:25:47.563Z,23.03
2018-06-16T22:28:58.344Z,19.57
2018-06-16T22:32:09.093Z,21.70
2018-06-16T22:35:20.052Z,27.73
2018-06-16T22:38:30.695Z,17.42
2018-06-16T22:41:41.308Z,16.65
2018-06-16T22:44:51.791Z,24.98
2018-06-16T22:48:02.119Z,20.77
2018-06-16T22:51:12.863Z,21.68
2018-06-16T22:54:23.193Z,27.00
2018-06-16T22:57:34.531Z,22.80
2018-06-16T23:00:45.460Z,22.37
2018-06-16T23:03:55.767Z,21.45
2018-06-16T23:07:06.003Z,16.47
2018-06-16T23:10:16.590Z,17.27
2018-06-16T23:13:27.286Z,22.58
2018-06-16T23:16:38.313Z,21.65
2018-06-16T23:19:48.985Z,22.90
2018-06-16T23:22:59.422Z,29.05
2018-06-16T23:26:09.592Z,20.33
2018-06-16T23:29:20.326Z,29.37
2018-06-16T23:32:31.088Z,25.37
2018-06-16T23:35:41.913Z,30.92
2018-06-16T23:38:52.695Z,27.07
2018-06-16T23:42:03.832Z,27.20
2018-06-16T23:45:14.193Z,23.98
2018-06-16T23:48:24.923Z,23.95
2018-06-16T23:51:35.524Z,22.73
2018-06-16T23:54:46.031Z,25.12
2018-06-16T23:57:56.715Z,27.07
